sensor_id;sensor_type;location;lat;lon;timestamp;temperature;humidity
8557;DHT22;4316;53.840;10.762;2023-02-01T00:01:44;5.60;99.90
8557;DHT22;4316;53.840;10.762;2023-02-01T00:04:09;5.60;99.90
8557;DHT22;4316;53.840;10.762;2023-02-01T00:06:35;5.60;99.90
8557;DHT22;4316;53.840;10.762;2023-02-01T00:09:01;5.60;99.90
8557;DHT22;4316;53.840;10.762;2023-02-01T00:11:27;5.60;99.90
8557;DHT22;4316;53.840;10.762;2023-02-01T00:13:53;5.60;99.90
8557;DHT22;4316;53.840;10.762;2023-02-01T00:16:23;5.60;99.90
8557;DHT22;4316;53.840;10.762;2023-02-01T00:18:51;5.60;99.90
8557;DHT22;4316;53.840;10.762;2023-02-01T00:21:19;5.50;99.90
8557;DHT22;4316;53.840;10.762;2023-02-01T00:23:45;5.50;99.90
8557;DHT22;4316;53.840;10.762;2023-02-01T00:26:17;5.50;99.90
8557;DHT22;4316;53.840;10.762;2023-02-01T00:28:43;5.60;99.90
8557;DHT22;4316;53.840;10.762;2023-02-01T00:31:09;5.60;99.90
8557;DHT22;4316;53.840;10.762;2023-02-01T00:33:35;5.50;99.90
8557;DHT22;4316;53.840;10.762;2023-02-01T00:36:06;5.50;99.90
8557;DHT22;4316;53.840;10.762;2023-02-01T00:38:33;5.50;99.90
8557;DHT22;4316;53.840;10.762;2023-02-01T00:41:09;5.60;99.90
8557;DHT22;4316;53.840;10.762;2023-02-01T00:43:35;5.60;99.90
8557;DHT22;4316;53.840;10.762;2023-02-01T00:46:00;5.60;99.90
8557;DHT22;4316;53.840;10.762;2023-02-01T00:48:26;5.60;99.90
8557;DHT22;4316;53.840;10.762;2023-02-01T00:50:52;5.70;99.90
8557;DHT22;4316;53.840;10.762;2023-02-01T00:53:17;5.70;99.90
8557;DHT22;4316;53.840;10.762;2023-02-01T00:55:47;5.70;99.90
8557;DHT22;4316;53.840;10.762;2023-02-01T00:58:13;5.70;99.90
8557;DHT22;4316;53.840;10.762;2023-02-01T01:00:39;5.70;99.90
8557;DHT22;4316;53.840;10.762;2023-02-01T01:03:05;5.70;99.90
8557;DHT22;4316;53.840;10.762;2023-02-01T01:05:48;5.70;99.90
8557;DHT22;4316;53.840;10.762;2023-02-01T01:08:15;5.80;99.90
8557;DHT22;4316;53.840;10.762;2023-02-01T01:10:41;5.70;99.90
8557;DHT22;4316;53.840;10.762;2023-02-01T01:13:07;5.70;99.90
8557;DHT22;4316;53.840;10.762;2023-02-01T01:15:38;5.70;99.90
8557;DHT22;4316;53.840;10.762;2023-02-01T01:18:04;5.70;99.90
8557;DHT22;4316;53.840;10.762;2023-02-01T01:20:30;5.70;99.90
8557;DHT22;4316;53.840;10.762;2023-02-01T01:22:55;5.70;99.90
8557;DHT22;4316;53.840;10.762;2023-02-01T01:25:21;5.60;99.90
8557;DHT22;4316;53.840;10.762;2023-02-01T01:27:47;5.60;99.90
8557;DHT22;4316;53.840;10.762;2023-02-01T01:30:12;5.60;99.90
8557;DHT22;4316;53.840;10.762;2023-02-01T01:32:38;5.60;99.90
8557;DHT22;4316;53.840;10.762;2023-02-01T01:35:04;5.70;99.90
8557;DHT22;4316;53.840;10.762;2023-02-01T01:37:31;5.60;99.90
8557;DHT22;4316;53.840;10.762;2023-02-01T01:39:57;5.60;99.90
8557;DHT22;4316;53.840;10.762;2023-02-01T01:42:23;5.60;99.90
8557;DHT22;4316;53.840;10.762;2023-02-01T01:45:02;5.60;99.90
8557;DHT22;4316;53.840;10.762;2023-02-01T01:47:39;5.60;99.90
8557;DHT22;4316;53.840;10.762;2023-02-01T01:50:11;5.60;99.90
8557;DHT22;4316;53.840;10.762;2023-02-01T01:52:39;5.60;99.90
8557;DHT22;4316;53.840;10.762;2023-02-01T01:55:06;5.60;99.90
8557;DHT22;4316;53.840;10.762;2023-02-01T01:57:36;5.60;99.90
8557;DHT22;4316;53.840;10.762;2023-02-01T02:00:15;5.60;99.90
8557;DHT22;4316;53.840;10.762;2023-02-01T02:02:46;5.60;99.90
8557;DHT22;4316;53.840;10.762;2023-02-01T02:05:13;5.60;99.90
8557;DHT22;4316;53.840;10.762;2023-02-01T02:07:45;5.60;99.90
8557;DHT22;4316;53.840;10.762;2023-02-01T02:10:13;5.70;99.90
8557;DHT22;4316;53.840;10.762;2023-02-01T02:12:40;5.70;99.90
8557;DHT22;4316;53.840;10.762;2023-02-01T02:15:08;5.70;99.90
8557;DHT22;4316;53.840;10.762;2023-02-01T02:17:59;5.60;99.90
8557;DHT22;4316;53.840;10.762;2023-02-01T02:20:45;5.60;99.90
8557;DHT22;4316;53.840;10.762;2023-02-01T02:26:46;5.60;99.90
8557;DHT22;4316;53.840;10.762;2023-02-01T02:32:39;5.60;99.90
8557;DHT22;4316;53.840;10.762;2023-02-01T02:41:14;5.70;99.90
8557;DHT22;4316;53.840;10.762;2023-02-01T02:44:09;5.70;99.90
8557;DHT22;4316;53.840;10.762;2023-02-01T02:47:00;5.80;99.90
8557;DHT22;4316;53.840;10.762;2023-02-01T02:50:09;5.80;99.90
8557;DHT22;4316;53.840;10.762;2023-02-01T02:53:27;5.80;99.90
8557;DHT22;4316;53.840;10.762;2023-02-01T02:56:13;5.80;99.90
8557;DHT22;4316;53.840;10.762;2023-02-01T02:58:59;5.80;99.90
8557;DHT22;4316;53.840;10.762;2023-02-01T03:01:44;5.70;99.90
8557;DHT22;4316;53.840;10.762;2023-02-01T03:04:28;5.80;99.90
8557;DHT22;4316;53.840;10.762;2023-02-01T03:06:54;5.80;99.90
8557;DHT22;4316;53.840;10.762;2023-02-01T03:09:31;5.80;99.90
8557;DHT22;4316;53.840;10.762;2023-02-01T03:12:03;5.80;99.90
8557;DHT22;4316;53.840;10.762;2023-02-01T03:14:52;5.80;99.90
8557;DHT22;4316;53.840;10.762;2023-02-01T03:17:24;5.80;99.90
8557;DHT22;4316;53.840;10.762;2023-02-01T03:19:52;5.80;99.90
8557;DHT22;4316;53.840;10.762;2023-02-01T03:22:24;5.80;99.90
8557;DHT22;4316;53.840;10.762;2023-02-01T03:24:59;5.80;99.90
8557;DHT22;4316;53.840;10.762;2023-02-01T03:27:40;5.80;99.90
8557;DHT22;4316;53.840;10.762;2023-02-01T03:30:24;5.90;99.90
8557;DHT22;4316;53.840;10.762;2023-02-01T03:32:54;5.90;99.90
8557;DHT22;4316;53.840;10.762;2023-02-01T03:35:40;5.90;99.90
8557;DHT22;4316;53.840;10.762;2023-02-01T03:38:32;5.90;99.90
8557;DHT22;4316;53.840;10.762;2023-02-01T03:41:26;5.90;99.90
8557;DHT22;4316;53.840;10.762;2023-02-01T03:44:02;5.90;99.90
8557;DHT22;4316;53.840;10.762;2023-02-01T03:46:37;5.90;99.90
8557;DHT22;4316;53.840;10.762;2023-02-01T03:49:07;5.90;99.90
8557;DHT22;4316;53.840;10.762;2023-02-01T03:51:36;5.80;99.90
8557;DHT22;4316;53.840;10.762;2023-02-01T03:54:05;5.90;99.90
8557;DHT22;4316;53.840;10.762;2023-02-01T03:56:36;5.70;99.90
8557;DHT22;4316;53.840;10.762;2023-02-01T03:59:02;5.70;99.90
8557;DHT22;4316;53.840;10.762;2023-02-01T04:01:32;5.60;99.90
8557;DHT22;4316;53.840;10.762;2023-02-01T04:03:59;5.50;99.90
8557;DHT22;4316;53.840;10.762;2023-02-01T04:06:25;5.40;99.90
8557;DHT22;4316;53.840;10.762;2023-02-01T04:08:52;5.40;99.90
8557;DHT22;4316;53.840;10.762;2023-02-01T04:11:18;5.30;99.90
8557;DHT22;4316;53.840;10.762;2023-02-01T04:13:44;5.20;99.90
8557;DHT22;4316;53.840;10.762;2023-02-01T04:16:10;5.20;99.90
8557;DHT22;4316;53.840;10.762;2023-02-01T04:18:36;5.10;99.90
8557;DHT22;4316;53.840;10.762;2023-02-01T04:21:17;5.10;99.90
8557;DHT22;4316;53.840;10.762;2023-02-01T04:23:43;5.20;99.90
8557;DHT22;4316;53.840;10.762;2023-02-01T04:26:08;5.10;99.90
8557;DHT22;4316;53.840;10.762;2023-02-01T04:28:34;5.10;99.90
8557;DHT22;4316;53.840;10.762;2023-02-01T04:30:59;4.90;99.90
8557;DHT22;4316;53.840;10.762;2023-02-01T04:33:25;4.80;99.90
8557;DHT22;4316;53.840;10.762;2023-02-01T04:35:50;4.70;99.90
8557;DHT22;4316;53.840;10.762;2023-02-01T04:38:16;4.60;99.90
8557;DHT22;4316;53.840;10.762;2023-02-01T04:40:42;4.60;99.90
8557;DHT22;4316;53.840;10.762;2023-02-01T04:43:07;4.60;99.90
8557;DHT22;4316;53.840;10.762;2023-02-01T04:45:33;4.50;99.90
8557;DHT22;4316;53.840;10.762;2023-02-01T04:47:58;4.50;99.90
8557;DHT22;4316;53.840;10.762;2023-02-01T04:50:24;4.60;99.90
8557;DHT22;4316;53.840;10.762;2023-02-01T04:52:50;4.50;99.90
8557;DHT22;4316;53.840;10.762;2023-02-01T04:55:15;4.40;99.90
8557;DHT22;4316;53.840;10.762;2023-02-01T04:57:41;4.30;99.90
8557;DHT22;4316;53.840;10.762;2023-02-01T05:00:08;4.30;99.90
8557;DHT22;4316;53.840;10.762;2023-02-01T05:02:34;4.30;99.90
8557;DHT22;4316;53.840;10.762;2023-02-01T05:05:00;4.30;99.90
8557;DHT22;4316;53.840;10.762;2023-02-01T05:07:26;4.30;99.90
8557;DHT22;4316;53.840;10.762;2023-02-01T05:09:51;4.30;99.90
8557;DHT22;4316;53.840;10.762;2023-02-01T05:12:17;4.30;99.90
8557;DHT22;4316;53.840;10.762;2023-02-01T05:15:01;4.30;99.90
8557;DHT22;4316;53.840;10.762;2023-02-01T05:17:27;4.30;99.90
8557;DHT22;4316;53.840;10.762;2023-02-01T05:19:52;4.30;99.90
8557;DHT22;4316;53.840;10.762;2023-02-01T05:22:18;4.30;99.90
8557;DHT22;4316;53.840;10.762;2023-02-01T05:24:44;4.40;99.90
8557;DHT22;4316;53.840;10.762;2023-02-01T05:27:10;4.30;99.90
8557;DHT22;4316;53.840;10.762;2023-02-01T05:29:35;4.30;99.90
8557;DHT22;4316;53.840;10.762;2023-02-01T05:32:01;4.40;99.90
8557;DHT22;4316;53.840;10.762;2023-02-01T05:34:26;4.40;99.90
8557;DHT22;4316;53.840;10.762;2023-02-01T05:36:52;4.40;99.90
8557;DHT22;4316;53.840;10.762;2023-02-01T05:39:18;4.40;99.90
8557;DHT22;4316;53.840;10.762;2023-02-01T05:41:44;4.50;99.90
8557;DHT22;4316;53.840;10.762;2023-02-01T05:44:11;4.50;99.90
8557;DHT22;4316;53.840;10.762;2023-02-01T05:46:36;4.50;99.90
8557;DHT22;4316;53.840;10.762;2023-02-01T05:49:03;4.50;99.90
8557;DHT22;4316;53.840;10.762;2023-02-01T05:51:28;4.60;99.90
8557;DHT22;4316;53.840;10.762;2023-02-01T05:53:54;4.60;99.90
8557;DHT22;4316;53.840;10.762;2023-02-01T05:56:20;4.60;99.90
8557;DHT22;4316;53.840;10.762;2023-02-01T05:58:45;4.60;99.90
8557;DHT22;4316;53.840;10.762;2023-02-01T06:01:11;4.60;99.90
8557;DHT22;4316;53.840;10.762;2023-02-01T06:03:36;4.60;99.90
8557;DHT22;4316;53.840;10.762;2023-02-01T06:06:02;4.60;99.90
8557;DHT22;4316;53.840;10.762;2023-02-01T06:08:29;4.50;99.90
8557;DHT22;4316;53.840;10.762;2023-02-01T06:10:59;4.50;99.90
8557;DHT22;4316;53.840;10.762;2023-02-01T06:13:25;4.50;99.90
8557;DHT22;4316;53.840;10.762;2023-02-01T06:15:50;4.30;99.90
8557;DHT22;4316;53.840;10.762;2023-02-01T06:18:16;4.30;99.90
8557;DHT22;4316;53.840;10.762;2023-02-01T06:20:42;4.40;99.90
8557;DHT22;4316;53.840;10.762;2023-02-01T06:23:07;4.40;99.90
8557;DHT22;4316;53.840;10.762;2023-02-01T06:25:33;4.40;99.90
8557;DHT22;4316;53.840;10.762;2023-02-01T06:28:02;4.40;99.90
8557;DHT22;4316;53.840;10.762;2023-02-01T06:30:28;4.40;99.90
8557;DHT22;4316;53.840;10.762;2023-02-01T06:32:53;4.40;99.90
8557;DHT22;4316;53.840;10.762;2023-02-01T06:35:19;4.50;99.90
8557;DHT22;4316;53.840;10.762;2023-02-01T06:37:45;4.40;99.90
8557;DHT22;4316;53.840;10.762;2023-02-01T06:40:11;4.40;99.90
8557;DHT22;4316;53.840;10.762;2023-02-01T06:42:37;4.40;99.90
8557;DHT22;4316;53.840;10.762;2023-02-01T06:45:02;4.40;99.90
8557;DHT22;4316;53.840;10.762;2023-02-01T06:47:28;4.40;99.90
8557;DHT22;4316;53.840;10.762;2023-02-01T06:49:53;4.30;99.90
8557;DHT22;4316;53.840;10.762;2023-02-01T06:52:19;4.40;99.90
8557;DHT22;4316;53.840;10.762;2023-02-01T06:54:45;4.30;99.90
8557;DHT22;4316;53.840;10.762;2023-02-01T06:57:10;4.30;99.90
8557;DHT22;4316;53.840;10.762;2023-02-01T06:59:36;4.20;99.90
8557;DHT22;4316;53.840;10.762;2023-02-01T07:02:08;4.20;99.90
8557;DHT22;4316;53.840;10.762;2023-02-01T07:04:34;4.30;99.90
8557;DHT22;4316;53.840;10.762;2023-02-01T07:06:59;4.30;99.90
8557;DHT22;4316;53.840;10.762;2023-02-01T07:09:25;4.30;99.90
8557;DHT22;4316;53.840;10.762;2023-02-01T07:11:51;4.40;99.90
8557;DHT22;4316;53.840;10.762;2023-02-01T07:14:16;4.30;99.90
8557;DHT22;4316;53.840;10.762;2023-02-01T07:16:42;4.30;99.90
8557;DHT22;4316;53.840;10.762;2023-02-01T07:19:07;4.30;99.90
8557;DHT22;4316;53.840;10.762;2023-02-01T07:21:33;4.40;99.90
8557;DHT22;4316;53.840;10.762;2023-02-01T07:23:58;4.30;99.90
8557;DHT22;4316;53.840;10.762;2023-02-01T07:26:24;4.40;99.90
8557;DHT22;4316;53.840;10.762;2023-02-01T07:28:50;4.30;99.90
8557;DHT22;4316;53.840;10.762;2023-02-01T07:31:18;4.30;99.90
8557;DHT22;4316;53.840;10.762;2023-02-01T07:33:46;4.30;99.90
8557;DHT22;4316;53.840;10.762;2023-02-01T07:36:13;4.30;99.90
8557;DHT22;4316;53.840;10.762;2023-02-01T07:38:39;4.30;99.90
8557;DHT22;4316;53.840;10.762;2023-02-01T07:41:05;4.30;99.90
8557;DHT22;4316;53.840;10.762;2023-02-01T07:43:32;4.40;99.90
8557;DHT22;4316;53.840;10.762;2023-02-01T07:45:58;4.30;99.90
8557;DHT22;4316;53.840;10.762;2023-02-01T07:52:08;4.30;99.90
8557;DHT22;4316;53.840;10.762;2023-02-01T07:54:36;4.30;99.90
8557;DHT22;4316;53.840;10.762;2023-02-01T08:00:23;4.40;99.90
8557;DHT22;4316;53.840;10.762;2023-02-01T08:03:36;4.40;99.90
8557;DHT22;4316;53.840;10.762;2023-02-01T08:06:01;4.50;99.90
8557;DHT22;4316;53.840;10.762;2023-02-01T08:08:28;4.50;99.90
8557;DHT22;4316;53.840;10.762;2023-02-01T08:11:01;4.60;99.90
8557;DHT22;4316;53.840;10.762;2023-02-01T08:13:27;4.70;99.90
8557;DHT22;4316;53.840;10.762;2023-02-01T08:15:56;4.70;99.90
8557;DHT22;4316;53.840;10.762;2023-02-01T08:18:22;4.90;99.90
8557;DHT22;4316;53.840;10.762;2023-02-01T08:20:48;5.00;99.90
8557;DHT22;4316;53.840;10.762;2023-02-01T08:23:13;5.20;99.90
8557;DHT22;4316;53.840;10.762;2023-02-01T08:25:41;5.50;99.90
8557;DHT22;4316;53.840;10.762;2023-02-01T08:28:07;5.50;99.90
8557;DHT22;4316;53.840;10.762;2023-02-01T08:30:33;5.60;99.90
8557;DHT22;4316;53.840;10.762;2023-02-01T08:32:58;5.60;99.90
8557;DHT22;4316;53.840;10.762;2023-02-01T08:35:24;5.90;99.90
8557;DHT22;4316;53.840;10.762;2023-02-01T08:37:51;5.60;99.90
8557;DHT22;4316;53.840;10.762;2023-02-01T08:40:17;5.50;99.90
8557;DHT22;4316;53.840;10.762;2023-02-01T08:42:42;5.60;99.90
8557;DHT22;4316;53.840;10.762;2023-02-01T08:45:23;5.90;99.90
8557;DHT22;4316;53.840;10.762;2023-02-01T08:47:50;5.90;99.90
8557;DHT22;4316;53.840;10.762;2023-02-01T08:50:17;5.90;99.90
8557;DHT22;4316;53.840;10.762;2023-02-01T08:52:43;5.80;99.90
8557;DHT22;4316;53.840;10.762;2023-02-01T08:55:09;5.90;99.90
8557;DHT22;4316;53.840;10.762;2023-02-01T08:57:35;5.70;99.90
8557;DHT22;4316;53.840;10.762;2023-02-01T09:00:01;5.70;99.90
8557;DHT22;4316;53.840;10.762;2023-02-01T09:02:27;5.60;99.90
8557;DHT22;4316;53.840;10.762;2023-02-01T09:04:52;5.60;99.90
8557;DHT22;4316;53.840;10.762;2023-02-01T09:07:21;5.70;99.90
8557;DHT22;4316;53.840;10.762;2023-02-01T09:09:47;5.60;99.90
8557;DHT22;4316;53.840;10.762;2023-02-01T09:12:13;5.70;99.90
8557;DHT22;4316;53.840;10.762;2023-02-01T09:14:38;5.90;99.90
8557;DHT22;4316;53.840;10.762;2023-02-01T09:17:04;6.10;99.90
8557;DHT22;4316;53.840;10.762;2023-02-01T09:19:31;6.30;99.90
8557;DHT22;4316;53.840;10.762;2023-02-01T09:21:56;6.40;99.90
8557;DHT22;4316;53.840;10.762;2023-02-01T09:24:22;6.30;99.90
8557;DHT22;4316;53.840;10.762;2023-02-01T09:26:48;6.50;99.90
8557;DHT22;4316;53.840;10.762;2023-02-01T09:29:14;6.90;99.90
8557;DHT22;4316;53.840;10.762;2023-02-01T09:31:40;7.80;99.90
8557;DHT22;4316;53.840;10.762;2023-02-01T09:34:07;7.90;99.90
8557;DHT22;4316;53.840;10.762;2023-02-01T09:36:33;7.80;99.90
8557;DHT22;4316;53.840;10.762;2023-02-01T09:38:59;8.00;99.90
8557;DHT22;4316;53.840;10.762;2023-02-01T09:41:49;7.60;99.90
8557;DHT22;4316;53.840;10.762;2023-02-01T09:47:14;6.80;99.90
8557;DHT22;4316;53.840;10.762;2023-02-01T09:49:48;6.60;99.90
8557;DHT22;4316;53.840;10.762;2023-02-01T09:52:17;6.50;99.90
8557;DHT22;4316;53.840;10.762;2023-02-01T09:54:59;6.30;99.90
8557;DHT22;4316;53.840;10.762;2023-02-01T09:57:55;6.30;99.90
8557;DHT22;4316;53.840;10.762;2023-02-01T10:00:29;6.40;99.90
8557;DHT22;4316;53.840;10.762;2023-02-01T10:02:56;7.40;99.90
8557;DHT22;4316;53.840;10.762;2023-02-01T10:08:25;9.10;99.90
8557;DHT22;4316;53.840;10.762;2023-02-01T10:11:02;9.40;99.90
8557;DHT22;4316;53.840;10.762;2023-02-01T10:13:59;10.00;99.90
8557;DHT22;4316;53.840;10.762;2023-02-01T10:19:33;9.80;99.90
8557;DHT22;4316;53.840;10.762;2023-02-01T10:22:11;10.00;99.90
8557;DHT22;4316;53.840;10.762;2023-02-01T10:24:57;9.20;99.90
8557;DHT22;4316;53.840;10.762;2023-02-01T10:27:37;8.80;99.90
8557;DHT22;4316;53.840;10.762;2023-02-01T10:32:43;8.30;99.90
8557;DHT22;4316;53.840;10.762;2023-02-01T10:35:13;8.40;99.90
8557;DHT22;4316;53.840;10.762;2023-02-01T10:37:42;8.70;99.90
8557;DHT22;4316;53.840;10.762;2023-02-01T10:40:21;9.70;99.90
8557;DHT22;4316;53.840;10.762;2023-02-01T10:42:50;10.40;99.90
8557;DHT22;4316;53.840;10.762;2023-02-01T10:45:19;11.10;99.90
8557;DHT22;4316;53.840;10.762;2023-02-01T10:47:47;11.00;99.90
8557;DHT22;4316;53.840;10.762;2023-02-01T10:50:45;10.30;99.90
8557;DHT22;4316;53.840;10.762;2023-02-01T10:53:24;10.10;99.90
8557;DHT22;4316;53.840;10.762;2023-02-01T10:55:54;10.00;99.90
8557;DHT22;4316;53.840;10.762;2023-02-01T10:58:26;9.60;99.90
8557;DHT22;4316;53.840;10.762;2023-02-01T11:01:08;9.50;99.90
8557;DHT22;4316;53.840;10.762;2023-02-01T11:03:41;9.50;99.90
8557;DHT22;4316;53.840;10.762;2023-02-01T11:06:17;8.80;99.90
8557;DHT22;4316;53.840;10.762;2023-02-01T11:11:32;8.20;99.90
8557;DHT22;4316;53.840;10.762;2023-02-01T11:14:00;7.90;99.90
8557;DHT22;4316;53.840;10.762;2023-02-01T11:16:34;7.80;99.90
8557;DHT22;4316;53.840;10.762;2023-02-01T11:18:59;7.70;99.90
8557;DHT22;4316;53.840;10.762;2023-02-01T11:21:25;7.60;99.90
8557;DHT22;4316;53.840;10.762;2023-02-01T11:23:51;7.50;99.90
8557;DHT22;4316;53.840;10.762;2023-02-01T11:26:25;7.40;99.90
8557;DHT22;4316;53.840;10.762;2023-02-01T11:29:02;7.30;99.90
8557;DHT22;4316;53.840;10.762;2023-02-01T11:31:29;7.10;99.90
8557;DHT22;4316;53.840;10.762;2023-02-01T11:33:59;7.10;99.90
8557;DHT22;4316;53.840;10.762;2023-02-01T11:36:28;7.00;99.90
8557;DHT22;4316;53.840;10.762;2023-02-01T11:44:36;6.20;99.90
8557;DHT22;4316;53.840;10.762;2023-02-01T11:47:27;6.10;99.90
8557;DHT22;4316;53.840;10.762;2023-02-01T11:49:56;6.10;99.90
8557;DHT22;4316;53.840;10.762;2023-02-01T11:52:43;6.10;99.90
8557;DHT22;4316;53.840;10.762;2023-02-01T11:58:22;6.00;99.90
8557;DHT22;4316;53.840;10.762;2023-02-01T12:06:51;6.10;99.90
8557;DHT22;4316;53.840;10.762;2023-02-01T12:12:26;6.20;99.90
8557;DHT22;4316;53.840;10.762;2023-02-01T12:15:16;6.20;99.90
8557;DHT22;4316;53.840;10.762;2023-02-01T12:20:57;6.30;99.90
8557;DHT22;4316;53.840;10.762;2023-02-01T12:23:40;6.30;99.90
8557;DHT22;4316;53.840;10.762;2023-02-01T12:26:16;6.30;99.90
8557;DHT22;4316;53.840;10.762;2023-02-01T12:37:40;6.40;99.90
8557;DHT22;4316;53.840;10.762;2023-02-01T12:40:21;6.30;99.90
8557;DHT22;4316;53.840;10.762;2023-02-01T12:43:03;6.20;99.90
8557;DHT22;4316;53.840;10.762;2023-02-01T12:45:35;6.00;99.90
8557;DHT22;4316;53.840;10.762;2023-02-01T12:48:17;5.90;99.90
8557;DHT22;4316;53.840;10.762;2023-02-01T12:50:49;5.70;99.90
8557;DHT22;4316;53.840;10.762;2023-02-01T12:53:20;5.70;99.90
8557;DHT22;4316;53.840;10.762;2023-02-01T12:55:58;5.60;99.90
8557;DHT22;4316;53.840;10.762;2023-02-01T12:58:43;5.60;99.90
8557;DHT22;4316;53.840;10.762;2023-02-01T13:01:16;5.50;99.90
8557;DHT22;4316;53.840;10.762;2023-02-01T13:04:08;5.30;99.90
8557;DHT22;4316;53.840;10.762;2023-02-01T13:06:49;5.30;99.90
8557;DHT22;4316;53.840;10.762;2023-02-01T13:09:36;5.10;99.90
8557;DHT22;4316;53.840;10.762;2023-02-01T13:12:19;5.20;99.90
8557;DHT22;4316;53.840;10.762;2023-02-01T13:15:01;5.20;99.90
8557;DHT22;4316;53.840;10.762;2023-02-01T13:17:30;5.20;99.90
8557;DHT22;4316;53.840;10.762;2023-02-01T13:20:03;5.30;99.90
8557;DHT22;4316;53.840;10.762;2023-02-01T13:22:38;5.30;99.90
8557;DHT22;4316;53.840;10.762;2023-02-01T13:27:38;5.30;99.90
8557;DHT22;4316;53.840;10.762;2023-02-01T13:30:20;5.30;99.90
8557;DHT22;4316;53.840;10.762;2023-02-01T13:33:21;5.30;99.90
8557;DHT22;4316;53.840;10.762;2023-02-01T13:39:03;5.30;99.90
8557;DHT22;4316;53.840;10.762;2023-02-01T13:41:35;5.40;99.90
8557;DHT22;4316;53.840;10.762;2023-02-01T13:44:11;5.40;99.90
8557;DHT22;4316;53.840;10.762;2023-02-01T13:46:45;5.30;99.90
8557;DHT22;4316;53.840;10.762;2023-02-01T13:49:24;5.30;99.90
8557;DHT22;4316;53.840;10.762;2023-02-01T13:51:54;5.10;99.90
8557;DHT22;4316;53.840;10.762;2023-02-01T13:54:38;5.10;99.90
8557;DHT22;4316;53.840;10.762;2023-02-01T13:57:14;5.00;99.90
8557;DHT22;4316;53.840;10.762;2023-02-01T13:59:52;5.00;99.90
8557;DHT22;4316;53.840;10.762;2023-02-01T14:05:11;4.90;99.90
8557;DHT22;4316;53.840;10.762;2023-02-01T14:23:43;4.80;99.90
8557;DHT22;4316;53.840;10.762;2023-02-01T14:26:45;4.80;99.90
8557;DHT22;4316;53.840;10.762;2023-02-01T14:31:58;4.80;99.90
8557;DHT22;4316;53.840;10.762;2023-02-01T14:44:51;5.10;99.90
8557;DHT22;4316;53.840;10.762;2023-02-01T14:52:34;4.90;99.90
8557;DHT22;4316;53.840;10.762;2023-02-01T14:55:05;4.90;99.90
8557;DHT22;4316;53.840;10.762;2023-02-01T14:57:34;4.90;99.90
8557;DHT22;4316;53.840;10.762;2023-02-01T15:00:18;4.90;99.90
8557;DHT22;4316;53.840;10.762;2023-02-01T15:02:46;5.00;99.90
8557;DHT22;4316;53.840;10.762;2023-02-01T15:05:29;4.90;99.90
8557;DHT22;4316;53.840;10.762;2023-02-01T15:07:58;4.90;99.90
8557;DHT22;4316;53.840;10.762;2023-02-01T15:10:26;5.00;99.90
8557;DHT22;4316;53.840;10.762;2023-02-01T15:12:53;5.00;99.90
8557;DHT22;4316;53.840;10.762;2023-02-01T15:15:22;5.00;99.90
8557;DHT22;4316;53.840;10.762;2023-02-01T15:17:56;5.00;99.90
8557;DHT22;4316;53.840;10.762;2023-02-01T15:20:28;5.00;99.90
8557;DHT22;4316;53.840;10.762;2023-02-01T15:23:02;5.00;99.90
8557;DHT22;4316;53.840;10.762;2023-02-01T15:25:30;5.00;99.90
8557;DHT22;4316;53.840;10.762;2023-02-01T15:27:57;5.00;99.90
8557;DHT22;4316;53.840;10.762;2023-02-01T15:30:24;5.00;99.90
8557;DHT22;4316;53.840;10.762;2023-02-01T15:32:51;5.00;99.90
8557;DHT22;4316;53.840;10.762;2023-02-01T15:35:40;5.10;99.90
8557;DHT22;4316;53.840;10.762;2023-02-01T15:41:15;5.00;99.90
8557;DHT22;4316;53.840;10.762;2023-02-01T15:43:49;5.00;99.90
8557;DHT22;4316;53.840;10.762;2023-02-01T15:46:40;5.00;99.90
8557;DHT22;4316;53.840;10.762;2023-02-01T15:49:27;5.20;99.90
8557;DHT22;4316;53.840;10.762;2023-02-01T15:51:54;5.20;99.90
8557;DHT22;4316;53.840;10.762;2023-02-01T15:54:42;5.10;99.90
8557;DHT22;4316;53.840;10.762;2023-02-01T15:57:09;5.20;99.90
8557;DHT22;4316;53.840;10.762;2023-02-01T15:59:41;5.30;99.90
8557;DHT22;4316;53.840;10.762;2023-02-01T16:02:25;5.40;99.90
8557;DHT22;4316;53.840;10.762;2023-02-01T16:04:51;5.30;99.90
8557;DHT22;4316;53.840;10.762;2023-02-01T16:07:28;5.30;99.90
8557;DHT22;4316;53.840;10.762;2023-02-01T16:09:56;5.30;99.90
8557;DHT22;4316;53.840;10.762;2023-02-01T16:12:34;5.30;99.90
8557;DHT22;4316;53.840;10.762;2023-02-01T16:15:10;5.40;99.90
8557;DHT22;4316;53.840;10.762;2023-02-01T16:17:35;5.40;99.90
8557;DHT22;4316;53.840;10.762;2023-02-01T16:20:01;5.50;99.90
8557;DHT22;4316;53.840;10.762;2023-02-01T16:22:26;5.50;99.90
8557;DHT22;4316;53.840;10.762;2023-02-01T16:24:52;5.40;99.90
8557;DHT22;4316;53.840;10.762;2023-02-01T16:27:17;5.50;99.90
8557;DHT22;4316;53.840;10.762;2023-02-01T16:29:43;5.40;99.90
8557;DHT22;4316;53.840;10.762;2023-02-01T16:32:22;5.40;99.90
8557;DHT22;4316;53.840;10.762;2023-02-01T16:34:48;5.40;99.90
8557;DHT22;4316;53.840;10.762;2023-02-01T16:37:19;5.50;99.90
8557;DHT22;4316;53.840;10.762;2023-02-01T16:39:45;5.40;99.90
8557;DHT22;4316;53.840;10.762;2023-02-01T16:42:12;5.40;99.90
8557;DHT22;4316;53.840;10.762;2023-02-01T16:44:38;5.30;99.90
8557;DHT22;4316;53.840;10.762;2023-02-01T16:47:12;5.30;99.90
8557;DHT22;4316;53.840;10.762;2023-02-01T16:49:41;5.20;99.90
8557;DHT22;4316;53.840;10.762;2023-02-01T16:52:15;5.20;99.90
8557;DHT22;4316;53.840;10.762;2023-02-01T16:54:42;5.10;99.90
8557;DHT22;4316;53.840;10.762;2023-02-01T16:57:14;5.10;99.90
8557;DHT22;4316;53.840;10.762;2023-02-01T16:59:41;5.10;99.90
8557;DHT22;4316;53.840;10.762;2023-02-01T17:02:17;5.10;99.90
8557;DHT22;4316;53.840;10.762;2023-02-01T17:04:45;5.00;99.90
8557;DHT22;4316;53.840;10.762;2023-02-01T17:07:18;5.10;99.90
8557;DHT22;4316;53.840;10.762;2023-02-01T17:09:44;5.10;99.90
8557;DHT22;4316;53.840;10.762;2023-02-01T17:12:27;5.10;99.90
8557;DHT22;4316;53.840;10.762;2023-02-01T17:14:55;5.10;99.90
8557;DHT22;4316;53.840;10.762;2023-02-01T17:17:21;5.20;99.90
8557;DHT22;4316;53.840;10.762;2023-02-01T17:19:49;5.30;99.90
8557;DHT22;4316;53.840;10.762;2023-02-01T17:22:22;5.30;99.90
8557;DHT22;4316;53.840;10.762;2023-02-01T17:24:48;5.30;99.90
8557;DHT22;4316;53.840;10.762;2023-02-01T17:27:16;5.40;99.90
8557;DHT22;4316;53.840;10.762;2023-02-01T17:29:41;5.40;99.90
8557;DHT22;4316;53.840;10.762;2023-02-01T17:32:16;5.40;99.90
8557;DHT22;4316;53.840;10.762;2023-02-01T17:34:42;5.40;99.90
8557;DHT22;4316;53.840;10.762;2023-02-01T17:37:22;5.50;99.90
8557;DHT22;4316;53.840;10.762;2023-02-01T17:39:49;5.50;99.90
8557;DHT22;4316;53.840;10.762;2023-02-01T17:42:21;5.50;99.90
8557;DHT22;4316;53.840;10.762;2023-02-01T17:44:46;5.50;99.90
8557;DHT22;4316;53.840;10.762;2023-02-01T17:47:12;5.60;99.90
8557;DHT22;4316;53.840;10.762;2023-02-01T17:49:38;5.60;99.90
8557;DHT22;4316;53.840;10.762;2023-02-01T17:52:04;5.60;99.90
8557;DHT22;4316;53.840;10.762;2023-02-01T17:54:30;5.70;99.90
8557;DHT22;4316;53.840;10.762;2023-02-01T17:56:56;5.70;99.90
8557;DHT22;4316;53.840;10.762;2023-02-01T17:59:25;5.70;99.90
8557;DHT22;4316;53.840;10.762;2023-02-01T18:01:51;5.70;99.90
8557;DHT22;4316;53.840;10.762;2023-02-01T18:04:18;5.70;99.90
8557;DHT22;4316;53.840;10.762;2023-02-01T18:06:44;5.70;99.90
8557;DHT22;4316;53.840;10.762;2023-02-01T18:09:10;5.70;99.90
8557;DHT22;4316;53.840;10.762;2023-02-01T18:11:35;5.70;99.90
8557;DHT22;4316;53.840;10.762;2023-02-01T18:14:01;5.70;99.90
8557;DHT22;4316;53.840;10.762;2023-02-01T18:16:29;5.70;99.90